createdAt,value
2022-10-03T00:00:18.880Z,2.10
2022-10-03T00:03:20.569Z,1.93
2022-10-03T00:06:03.646Z,3.67
2022-10-03T00:08:53.204Z,3.83
2022-10-03T00:11:32.852Z,2.67
2022-10-03T00:14:07.651Z,2.37
2022-10-03T00:16:46.420Z,2.10
2022-10-03T00:19:44.551Z,2.40
2022-10-03T00:22:28.529Z,2.40
2022-10-03T00:25:07.920Z,2.00
2022-10-03T00:27:43.272Z,1.80
2022-10-03T00:30:18.811Z,2.10
2022-10-03T00:33:08.255Z,1.90
2022-10-03T00:36:27.297Z,1.70
2022-10-03T00:39:27.161Z,1.90
2022-10-03T00:42:35.982Z,2.00
2022-10-03T00:45:36.895Z,2.00
2022-10-03T00:48:40.304Z,2.00
2022-10-03T00:51:26.815Z,2.00
2022-10-03T00:54:17.562Z,2.27
2022-10-03T00:57:04.637Z,2.00
2022-10-03T00:59:48.200Z,2.03
2022-10-03T01:02:30.613Z,2.10
2022-10-03T01:05:09.697Z,1.80
2022-10-03T01:07:59.852Z,2.20
2022-10-03T01:10:38.671Z,2.07
2022-10-03T01:13:29.371Z,2.40
2022-10-03T01:16:06.592Z,2.40
2022-10-03T01:18:44.510Z,2.50
2022-10-03T01:21:22.296Z,2.60
2022-10-03T01:24:51.481Z,2.73
2022-10-03T01:27:29.691Z,2.50
2022-10-03T01:30:22.010Z,2.60
2022-10-03T01:32:58.947Z,2.70
2022-10-03T01:35:43.643Z,2.47
2022-10-03T01:38:20.929Z,2.20
2022-10-03T01:40:54.924Z,2.50
2022-10-03T01:43:32.545Z,2.33
2022-10-03T01:46:13.467Z,2.57
2022-10-03T01:48:51.059Z,2.30
2022-10-03T01:51:24.608Z,2.43
2022-10-03T01:54:07.512Z,1.90
2022-10-03T01:56:51.600Z,2.20
2022-10-03T01:59:26.941Z,2.10
2022-10-03T02:02:03.244Z,2.50
2022-10-03T02:04:44.341Z,2.37
2022-10-03T02:07:20.473Z,2.47
2022-10-03T02:10:00.029Z,2.17
2022-10-03T02:12:35.160Z,2.80
2022-10-03T02:15:14.481Z,2.33
2022-10-03T02:17:55.824Z,2.60
2022-10-03T02:20:57.015Z,2.40
2022-10-03T02:23:42.046Z,2.30
2022-10-03T02:26:31.351Z,2.20
2022-10-03T02:29:25.815Z,2.40
2022-10-03T02:32:38.192Z,2.73
2022-10-03T02:35:40.213Z,2.67
2022-10-03T02:41:52.600Z,2.53
2022-10-03T02:44:47.905Z,2.33
2022-10-03T02:47:49.317Z,3.00
2022-10-03T02:50:48.545Z,2.90
2022-10-03T02:53:44.801Z,2.70
2022-10-03T02:56:48.259Z,2.60
2022-10-03T03:00:03.210Z,3.50
2022-10-03T03:03:40.231Z,2.67
2022-10-03T03:06:39.979Z,3.00
2022-10-03T03:09:33.796Z,3.13
2022-10-03T03:12:40.372Z,3.07
2022-10-03T03:16:06.903Z,2.50
2022-10-03T03:18:43.347Z,2.70
2022-10-03T03:21:31.078Z,2.67
2022-10-03T03:24:31.572Z,3.03
2022-10-03T03:27:23.548Z,2.73
2022-10-03T03:30:02.502Z,2.70
2022-10-03T03:32:45.387Z,3.00
2022-10-03T03:35:24.382Z,2.47
2022-10-03T03:38:05.176Z,2.70
2022-10-03T03:40:46.700Z,2.70
2022-10-03T03:43:46.668Z,2.50
2022-10-03T03:46:38.933Z,2.80
2022-10-03T03:49:33.727Z,2.23
2022-10-03T03:52:26.530Z,2.50
2022-10-03T03:55:53.211Z,2.30
2022-10-03T03:58:44.778Z,2.83
2022-10-03T04:01:38.129Z,2.30
2022-10-03T04:04:21.467Z,2.10
2022-10-03T04:07:04.290Z,2.70
2022-10-03T04:10:00.287Z,2.37
2022-10-03T04:12:44.745Z,2.73
2022-10-03T04:15:26.693Z,2.67
2022-10-03T04:18:37.913Z,2.57
2022-10-03T04:21:28.996Z,2.53
2022-10-03T04:24:36.552Z,2.60
2022-10-03T04:27:48.157Z,2.43
2022-10-03T04:30:21.970Z,2.00
2022-10-03T04:33:09.493Z,2.53
2022-10-03T04:36:37.757Z,2.70
2022-10-03T04:39:11.866Z,2.63
2022-10-03T04:41:49.999Z,4.03
2022-10-03T04:44:41.073Z,3.80
2022-10-03T04:47:21.359Z,3.60
2022-10-03T04:49:57.742Z,3.30
2022-10-03T04:52:37.568Z,3.37
2022-10-03T04:55:25.016Z,2.60
2022-10-03T04:58:04.683Z,2.97
2022-10-03T05:00:41.815Z,2.67
2022-10-03T05:03:22.671Z,2.90
2022-10-03T05:05:56.574Z,3.10
2022-10-03T05:08:39.788Z,2.87
2022-10-03T05:11:24.844Z,2.80
2022-10-03T05:14:02.447Z,2.80
2022-10-03T05:16:40.385Z,3.00
2022-10-03T05:19:41.051Z,2.60
2022-10-03T05:22:20.938Z,3.70
2022-10-03T05:24:59.022Z,2.80
2022-10-03T05:27:37.789Z,2.90
2022-10-03T05:30:11.354Z,3.23
2022-10-03T05:32:45.823Z,3.03
2022-10-03T05:35:26.497Z,3.10
2022-10-03T05:38:24.470Z,3.50
2022-10-03T05:41:04.789Z,3.93
2022-10-03T05:43:53.351Z,3.90
2022-10-03T05:46:40.460Z,3.33
2022-10-03T05:49:43.220Z,3.10
2022-10-03T05:52:41.906Z,3.50
2022-10-03T05:55:29.295Z,3.40
2022-10-03T05:58:43.639Z,3.57
2022-10-03T06:01:39.667Z,3.93
2022-10-03T06:05:08.533Z,2.87
2022-10-03T06:07:51.202Z,3.07
2022-10-03T06:10:51.075Z,3.20
2022-10-03T06:13:37.189Z,2.90
2022-10-03T06:16:24.497Z,3.50
2022-10-03T06:19:14.651Z,2.93
2022-10-03T06:22:15.524Z,3.10
2022-10-03T06:25:30.808Z,3.20
2022-10-03T06:28:32.611Z,3.20
2022-10-03T06:31:32.761Z,3.60
2022-10-03T06:34:19.083Z,3.10
2022-10-03T06:37:03.614Z,3.13
2022-10-03T06:40:19.829Z,2.73
2022-10-03T06:43:16.191Z,2.50
2022-10-03T06:46:42.141Z,2.83
2022-10-03T06:49:48.388Z,2.47
2022-10-03T06:52:47.147Z,2.30
2022-10-03T06:56:01.098Z,3.10
2022-10-03T06:58:54.681Z,2.90
2022-10-03T07:02:07.590Z,2.60
2022-10-03T07:05:05.742Z,5.40
2022-10-03T07:08:20.662Z,3.17
2022-10-03T07:11:01.507Z,2.33
2022-10-03T07:14:01.864Z,3.20
2022-10-03T07:17:00.407Z,4.07
2022-10-03T07:20:05.212Z,8.77
2022-10-03T07:23:13.663Z,6.40
2022-10-03T07:26:08.588Z,2.60
2022-10-03T07:29:08.783Z,2.50
2022-10-03T07:32:20.756Z,3.00
2022-10-03T07:35:19.500Z,2.80
2022-10-03T07:38:32.560Z,2.50
2022-10-03T07:41:28.395Z,2.73
2022-10-03T07:44:36.137Z,3.13
2022-10-03T07:47:55.015Z,2.73
2022-10-03T07:50:52.354Z,2.23
2022-10-03T07:53:45.374Z,2.00
2022-10-03T07:56:46.584Z,2.63
2022-10-03T08:00:02.598Z,1.70
2022-10-03T08:03:12.810Z,1.70
2022-10-03T08:05:54.854Z,3.90
2022-10-03T08:09:25.585Z,2.37
2022-10-03T08:12:52.137Z,2.40
2022-10-03T08:15:29.033Z,4.00
2022-10-03T08:18:18.057Z,2.00
2022-10-03T08:20:57.255Z,1.80
2022-10-03T08:23:54.035Z,1.80
2022-10-03T08:26:38.402Z,1.93
2022-10-03T08:29:37.875Z,1.80
2022-10-03T08:32:48.390Z,1.90
2022-10-03T08:35:57.583Z,2.40
2022-10-03T08:38:51.660Z,2.23
2022-10-03T08:42:01.630Z,5.30
2022-10-03T08:45:13.533Z,2.27
2022-10-03T08:48:15.477Z,2.30
2022-10-03T08:51:20.516Z,3.30
2022-10-03T08:54:08.990Z,2.77
2022-10-03T08:56:53.338Z,2.27
2022-10-03T08:59:57.070Z,3.00
2022-10-03T09:03:32.013Z,2.43
2022-10-03T09:06:30.411Z,2.10
2022-10-03T09:09:25.735Z,2.30
2022-10-03T09:12:32.374Z,2.23
2022-10-03T09:15:15.293Z,2.40
2022-10-03T09:18:21.876Z,3.30
2022-10-03T09:21:37.089Z,3.07
2022-10-03T09:24:25.940Z,3.10
2022-10-03T09:27:19.881Z,3.70
2022-10-03T09:30:18.120Z,2.80
2022-10-03T09:33:33.390Z,4.13
2022-10-03T09:36:38.010Z,2.97
2022-10-03T09:39:36.013Z,2.60
2022-10-03T09:42:28.474Z,2.50
2022-10-03T09:45:15.601Z,2.40
2022-10-03T09:48:18.894Z,2.17
2022-10-03T09:51:04.083Z,2.43
2022-10-03T09:53:59.458Z,2.20
2022-10-03T09:57:10.155Z,2.30
2022-10-03T10:00:11.241Z,1.90
2022-10-03T10:03:22.019Z,1.90
2022-10-03T10:06:24.837Z,2.03
2022-10-03T10:09:32.858Z,2.40
2022-10-03T10:12:31.910Z,2.00
2022-10-03T10:15:27.471Z,2.00
2022-10-03T10:18:26.937Z,1.93
2022-10-03T10:21:31.612Z,1.70
2022-10-03T10:24:31.746Z,1.40
2022-10-03T10:27:35.578Z,1.50
2022-10-03T10:30:23.857Z,2.70
2022-10-03T10:33:24.733Z,1.73
2022-10-03T10:36:48.372Z,1.70
2022-10-03T10:40:07.335Z,1.50
2022-10-03T10:43:18.249Z,1.70
2022-10-03T10:46:14.377Z,1.60
2022-10-03T10:49:33.969Z,2.00
2022-10-03T10:52:37.292Z,2.00
2022-10-03T10:55:59.466Z,1.80
2022-10-03T10:59:09.769Z,2.10
2022-10-03T11:02:07.033Z,2.37
2022-10-03T11:05:15.876Z,2.40
2022-10-03T11:08:24.906Z,3.33
2022-10-03T11:11:16.266Z,4.20
2022-10-03T11:14:07.824Z,3.53
2022-10-03T11:17:28.186Z,4.00
2022-10-03T11:20:38.951Z,3.00
2022-10-03T11:23:59.415Z,3.27
2022-10-03T11:27:03.669Z,3.90
2022-10-03T11:30:08.745Z,4.33
2022-10-03T11:33:23.173Z,4.20
2022-10-03T11:36:24.115Z,4.00
2022-10-03T11:39:01.791Z,4.47
2022-10-03T11:41:47.938Z,4.90
2022-10-03T11:44:22.994Z,4.10
2022-10-03T11:47:05.477Z,4.13
2022-10-03T11:50:05.055Z,4.80
2022-10-03T11:52:38.455Z,4.70
2022-10-03T11:55:21.909Z,6.63
2022-10-03T11:58:04.860Z,5.37
2022-10-03T12:00:37.711Z,7.30
2022-10-03T12:03:33.314Z,7.20
2022-10-03T12:06:23.698Z,6.17
2022-10-03T12:09:12.263Z,4.13
2022-10-03T12:11:51.277Z,4.03
2022-10-03T12:14:29.341Z,3.83
2022-10-03T12:17:09.298Z,3.77
2022-10-03T12:19:47.976Z,3.50
2022-10-03T12:22:31.397Z,3.67
2022-10-03T12:25:09.406Z,4.20
2022-10-03T12:27:48.616Z,3.57
2022-10-03T12:30:19.727Z,3.87
2022-10-03T12:33:03.167Z,3.60
2022-10-03T12:35:44.220Z,4.37
2022-10-03T12:38:37.617Z,4.33
2022-10-03T12:41:22.924Z,4.43
2022-10-03T12:44:07.955Z,4.63
2022-10-03T12:46:46.858Z,5.50
2022-10-03T12:49:21.289Z,5.20
2022-10-03T12:51:55.261Z,4.70
2022-10-03T12:54:44.209Z,4.63
2022-10-03T12:57:49.700Z,5.10
2022-10-03T13:00:24.505Z,3.70
2022-10-03T13:03:12.168Z,3.80
2022-10-03T13:05:57.971Z,4.07
2022-10-03T13:08:51.699Z,3.50
2022-10-03T13:11:41.903Z,3.50
2022-10-03T13:14:30.991Z,3.17
2022-10-03T13:17:39.331Z,4.30
2022-10-03T13:20:16.885Z,4.83
2022-10-03T13:22:50.795Z,4.97
2022-10-03T13:25:24.312Z,6.00
2022-10-03T13:28:02.183Z,4.00
2022-10-03T13:34:16.094Z,5.77
2022-10-03T13:36:54.632Z,3.80
2022-10-03T13:39:27.155Z,5.13
2022-10-03T13:42:10.637Z,5.67
2022-10-03T13:44:41.729Z,6.37
2022-10-03T13:47:28.158Z,4.60
2022-10-03T13:49:59.124Z,3.90
2022-10-03T13:52:36.986Z,3.37
2022-10-03T13:55:45.023Z,4.60
2022-10-03T13:58:32.844Z,3.80
2022-10-03T14:01:35.197Z,4.80
2022-10-03T14:04:35.820Z,4.10
2022-10-03T14:07:15.092Z,14.13
2022-10-03T14:10:10.497Z,5.20
2022-10-03T14:12:56.491Z,4.10
2022-10-03T14:15:54.401Z,12.50
2022-10-03T14:18:44.989Z,4.57
2022-10-03T14:21:32.454Z,6.83
2022-10-03T14:24:12.822Z,8.57
2022-10-03T14:26:49.647Z,17.27
2022-10-03T14:29:28.013Z,13.07
2022-10-03T14:32:01.669Z,12.53
2022-10-03T14:34:42.642Z,14.90
2022-10-03T14:37:23.633Z,11.80
2022-10-03T14:40:07.027Z,10.60
2022-10-03T14:43:16.880Z,15.83
2022-10-03T14:45:49.767Z,11.27
2022-10-03T14:48:24.225Z,7.63
2022-10-03T14:50:56.894Z,4.23
2022-10-03T14:53:30.071Z,4.20
2022-10-03T14:56:03.138Z,4.30
2022-10-03T14:58:36.021Z,3.60
2022-10-03T15:01:13.362Z,3.93
2022-10-03T15:03:46.371Z,3.50
2022-10-03T15:06:37.738Z,2.93
2022-10-03T15:09:12.111Z,3.30
2022-10-03T15:11:49.732Z,4.53
2022-10-03T15:14:18.416Z,5.47
2022-10-03T15:16:50.852Z,11.03
2022-10-03T15:19:23.157Z,6.27
2022-10-03T15:21:54.523Z,6.23
2022-10-03T15:24:27.134Z,16.47
2022-10-03T15:27:01.581Z,8.43
2022-10-03T15:29:32.788Z,4.03
2022-10-03T15:32:02.163Z,3.60
2022-10-03T15:34:34.370Z,8.43
2022-10-03T15:37:19.677Z,4.57
2022-10-03T15:39:52.905Z,3.27
2022-10-03T15:42:25.803Z,3.10
2022-10-03T15:44:58.319Z,3.43
2022-10-03T15:47:29.662Z,3.10
2022-10-03T15:50:02.690Z,4.10
2022-10-03T15:52:41.750Z,4.47
2022-10-03T15:55:20.518Z,5.37
2022-10-03T15:57:52.701Z,4.03
2022-10-03T16:00:28.203Z,3.37
2022-10-03T16:03:06.811Z,3.30
2022-10-03T16:05:37.193Z,3.50
2022-10-03T16:08:11.004Z,4.10
2022-10-03T16:10:47.286Z,5.00
2022-10-03T16:13:29.920Z,5.33
2022-10-03T16:16:14.109Z,3.70
2022-10-03T16:19:22.264Z,3.30
2022-10-03T16:21:57.471Z,3.00
2022-10-03T16:24:35.319Z,3.50
2022-10-03T16:27:16.990Z,3.53
2022-10-03T16:29:55.400Z,3.73
2022-10-03T16:32:26.877Z,5.10
2022-10-03T16:35:02.964Z,8.37
2022-10-03T16:37:33.454Z,9.33
2022-10-03T16:40:04.223Z,6.00
2022-10-03T16:42:44.360Z,5.37
2022-10-03T16:45:25.767Z,4.03
2022-10-03T16:48:11.326Z,3.50
2022-10-03T16:50:47.591Z,3.20
2022-10-03T16:53:18.325Z,3.03
2022-10-03T16:55:49.975Z,3.50
2022-10-03T16:58:26.855Z,5.33
2022-10-03T17:01:25.832Z,6.97
2022-10-03T17:03:56.607Z,5.43
2022-10-03T17:06:30.312Z,7.23
2022-10-03T17:09:03.128Z,7.80
2022-10-03T17:11:37.503Z,9.50
2022-10-03T17:14:10.958Z,5.13
2022-10-03T17:16:47.928Z,4.73
2022-10-03T17:19:22.418Z,5.07
2022-10-03T17:21:55.323Z,3.90
2022-10-03T17:24:34.478Z,3.83
2022-10-03T17:27:07.575Z,3.73
2022-10-03T17:29:44.395Z,3.83
2022-10-03T17:32:21.537Z,3.30
2022-10-03T17:34:55.868Z,4.00
2022-10-03T17:37:57.464Z,3.80
2022-10-03T17:40:44.371Z,3.47
2022-10-03T17:43:22.875Z,3.27
2022-10-03T17:46:05.614Z,2.90
2022-10-03T17:48:40.028Z,3.80
2022-10-03T17:51:32.208Z,3.30
2022-10-03T17:54:04.664Z,3.50
2022-10-03T17:56:35.470Z,3.30
2022-10-03T17:59:14.048Z,3.23
2022-10-03T18:01:47.605Z,2.93
2022-10-03T18:04:41.632Z,3.03
2022-10-03T18:07:14.008Z,3.63
2022-10-03T18:09:47.931Z,3.17
2022-10-03T18:12:23.689Z,2.80
2022-10-03T18:15:39.548Z,2.73
2022-10-03T18:18:43.983Z,2.50
2022-10-03T18:21:19.066Z,2.73
2022-10-03T18:24:08.328Z,2.97
2022-10-03T18:26:42.382Z,3.53
2022-10-03T18:29:26.615Z,2.83
2022-10-03T18:31:59.074Z,2.47
2022-10-03T18:34:35.357Z,3.33
2022-10-03T18:37:34.503Z,3.67
2022-10-03T18:40:29.946Z,4.03
2022-10-03T18:43:00.988Z,4.13
2022-10-03T18:45:32.743Z,2.80
2022-10-03T18:48:09.361Z,2.40
2022-10-03T18:50:52.421Z,2.50
2022-10-03T18:53:31.827Z,2.20
2022-10-03T18:56:04.736Z,2.13
2022-10-03T18:58:37.462Z,2.17
2022-10-03T19:01:09.678Z,2.83
2022-10-03T19:03:40.936Z,4.40
2022-10-03T19:06:20.759Z,4.73
2022-10-03T19:08:54.656Z,3.73
2022-10-03T19:11:27.481Z,4.30
2022-10-03T19:14:01.953Z,4.37
2022-10-03T19:16:47.546Z,3.53
2022-10-03T19:19:26.806Z,3.53
2022-10-03T19:21:57.787Z,3.87
2022-10-03T19:24:56.624Z,6.27
2022-10-03T19:27:25.986Z,5.00
2022-10-03T19:29:58.251Z,3.10
2022-10-03T19:32:30.241Z,4.10
2022-10-03T19:35:05.452Z,2.90
2022-10-03T19:37:45.462Z,2.20
2022-10-03T19:40:25.945Z,2.10
2022-10-03T19:42:59.882Z,2.10
2022-10-03T19:45:28.466Z,2.13
2022-10-03T19:48:02.318Z,1.90
2022-10-03T19:50:33.734Z,2.50
2022-10-03T19:53:02.850Z,2.60
2022-10-03T19:55:37.486Z,2.40
2022-10-03T19:58:15.037Z,2.77
2022-10-03T20:00:52.920Z,3.67
2022-10-03T20:03:26.289Z,2.40
2022-10-03T20:06:02.119Z,6.17
2022-10-03T20:08:40.254Z,8.13
2022-10-03T20:11:21.566Z,10.47
2022-10-03T20:13:51.242Z,5.43
2022-10-03T20:16:22.576Z,3.60
2022-10-03T20:18:53.938Z,2.80
2022-10-03T20:21:27.744Z,2.57
2022-10-03T20:23:57.071Z,2.20
2022-10-03T20:26:35.674Z,2.43
2022-10-03T20:29:29.798Z,2.30
2022-10-03T20:32:02.908Z,2.40
2022-10-03T20:34:32.307Z,2.50
2022-10-03T20:37:18.779Z,2.57
2022-10-03T20:39:52.433Z,2.40
2022-10-03T20:42:26.557Z,1.93
2022-10-03T20:45:00.423Z,1.90
2022-10-03T20:47:49.797Z,2.00
2022-10-03T20:50:26.257Z,2.27
2022-10-03T20:52:58.215Z,1.70
2022-10-03T20:55:29.083Z,2.20
2022-10-03T20:58:12.333Z,2.47
2022-10-03T21:00:47.507Z,2.40
2022-10-03T21:03:28.075Z,2.17
2022-10-03T21:06:00.153Z,1.90
2022-10-03T21:08:35.345Z,2.40
2022-10-03T21:11:13.089Z,2.10
2022-10-03T21:13:49.973Z,2.00
2022-10-03T21:16:22.260Z,2.60
2022-10-03T21:18:53.223Z,2.20
2022-10-03T21:21:28.184Z,3.00
2022-10-03T21:24:04.291Z,2.03
2022-10-03T21:26:35.642Z,2.90
2022-10-03T21:29:26.672Z,2.53
2022-10-03T21:32:06.685Z,2.20
2022-10-03T21:34:45.492Z,2.20
2022-10-03T21:37:21.472Z,2.10
2022-10-03T21:40:04.914Z,2.33
2022-10-03T21:42:41.142Z,2.20
2022-10-03T21:45:33.239Z,2.10
2022-10-03T21:48:11.859Z,1.90
2022-10-03T21:50:48.896Z,1.97
2022-10-03T21:53:20.959Z,1.93
2022-10-03T21:56:09.340Z,2.23
2022-10-03T21:59:15.090Z,2.33
2022-10-03T22:01:53.896Z,2.30
2022-10-03T22:04:26.605Z,1.93
2022-10-03T22:07:06.820Z,2.10
2022-10-03T22:09:35.622Z,2.00
2022-10-03T22:12:07.967Z,1.93
2022-10-03T22:14:43.982Z,2.10
2022-10-03T22:17:21.594Z,2.20
2022-10-03T22:19:53.978Z,1.70
2022-10-03T22:22:38.401Z,2.67
2022-10-03T22:25:20.190Z,2.27
2022-10-03T22:27:57.580Z,2.27
2022-10-03T22:30:26.260Z,2.50
2022-10-03T22:33:09.542Z,2.47
2022-10-03T22:35:49.810Z,2.23
2022-10-03T22:38:20.299Z,2.20
2022-10-03T22:40:51.653Z,2.37
2022-10-03T22:43:21.770Z,2.30
2022-10-03T22:45:52.581Z,2.03
2022-10-03T22:48:26.869Z,2.03
2022-10-03T22:50:56.648Z,2.10
2022-10-03T22:53:30.100Z,1.87
2022-10-03T22:56:00.275Z,2.00
2022-10-03T22:58:30.749Z,1.90
2022-10-03T23:01:01.449Z,2.10
2022-10-03T23:03:34.736Z,2.30
2022-10-03T23:06:32.129Z,2.07
2022-10-03T23:09:12.023Z,1.83
2022-10-03T23:11:42.686Z,2.17
2022-10-03T23:14:19.143Z,2.20
2022-10-03T23:17:19.333Z,2.10
2022-10-03T23:19:57.625Z,2.27
2022-10-03T23:22:29.892Z,1.93
2022-10-03T23:25:02.495Z,2.13
2022-10-03T23:28:08.931Z,2.23
2022-10-03T23:30:54.321Z,2.60
2022-10-03T23:33:54.389Z,2.50
2022-10-03T23:36:25.821Z,2.67
2022-10-03T23:39:01.888Z,2.30
2022-10-03T23:41:57.686Z,3.13
2022-10-03T23:44:36.782Z,2.47
2022-10-03T23:47:08.020Z,2.30
2022-10-03T23:49:38.605Z,2.30
2022-10-03T23:52:15.825Z,2.40
2022-10-03T23:54:45.475Z,2.20
2022-10-03T23:57:17.115Z,2.30
2022-10-03T23:59:46.230Z,2.30
